createdAt,value
2022-10-13T00:05:55.603Z,6.49
2022-10-13T00:16:25.187Z,6.48
2022-10-13T00:26:54.184Z,6.32
2022-10-13T00:37:21.648Z,6.31
2022-10-13T00:47:52.914Z,6.31
2022-10-13T00:58:23.205Z,6.29
2022-10-13T01:08:50.915Z,6.23
2022-10-13T01:19:37.893Z,6.24
2022-10-13T01:30:16.053Z,6.16
2022-10-13T01:40:49.082Z,6.01
2022-10-13T01:51:20.482Z,5.98
2022-10-13T02:02:02.051Z,5.85
2022-10-13T02:12:32.472Z,5.82
2022-10-13T02:23:04.066Z,5.74
2022-10-13T02:33:31.966Z,5.50
2022-10-13T02:43:59.447Z,5.63
2022-10-13T02:54:27.070Z,5.81
2022-10-13T03:04:54.627Z,5.67
2022-10-13T03:15:22.095Z,5.48
2022-10-13T03:25:49.611Z,5.48
2022-10-13T03:36:17.282Z,5.57
2022-10-13T03:46:44.872Z,5.70
2022-10-13T03:57:12.393Z,5.80
2022-10-13T04:07:40.002Z,5.73
2022-10-13T04:18:09.500Z,5.58
2022-10-13T04:28:37.680Z,5.41
2022-10-13T04:39:06.769Z,5.27
2022-10-13T04:49:34.267Z,5.16
2022-10-13T05:00:01.844Z,5.24
2022-10-13T05:10:34.536Z,5.35
2022-10-13T05:21:09.583Z,5.19
2022-10-13T05:31:38.348Z,5.07
2022-10-13T05:42:06.225Z,5.22
2022-10-13T05:52:35.239Z,5.36
2022-10-13T06:03:08.761Z,5.57
2022-10-13T06:13:36.641Z,5.61
2022-10-13T06:24:04.141Z,5.44
2022-10-13T06:34:31.781Z,5.42
2022-10-13T06:44:59.452Z,5.86
2022-10-13T06:55:27.004Z,6.49
2022-10-13T07:05:54.920Z,7.18
2022-10-13T07:16:23.169Z,7.63
2022-10-13T07:26:50.751Z,8.05
2022-10-13T07:37:18.758Z,8.50
2022-10-13T07:47:46.546Z,8.92
2022-10-13T07:58:14.186Z,9.28
2022-10-13T08:08:42.011Z,9.61
2022-10-13T08:19:09.716Z,9.93
2022-10-13T08:29:37.754Z,10.27
2022-10-13T08:40:05.883Z,10.65
2022-10-13T08:50:36.933Z,10.96
2022-10-13T09:01:12.911Z,11.36
2022-10-13T09:11:43.571Z,11.70
2022-10-13T09:22:24.722Z,12.00
2022-10-13T09:32:52.364Z,12.34
2022-10-13T09:43:32.488Z,12.63
2022-10-13T09:54:00.074Z,12.83
2022-10-13T10:04:35.266Z,13.10
2022-10-13T10:15:02.799Z,13.32
2022-10-13T10:25:35.491Z,13.54
2022-10-13T10:36:16.776Z,13.80
2022-10-13T10:46:49.018Z,14.06
2022-10-13T10:57:22.998Z,14.33
2022-10-13T11:08:01.380Z,14.56
2022-10-13T11:19:09.042Z,14.61
2022-10-13T11:29:57.406Z,14.61
2022-10-13T11:40:32.865Z,14.68
2022-10-13T11:51:15.451Z,14.70
2022-10-13T12:01:53.821Z,14.78
2022-10-13T12:12:23.083Z,14.88
2022-10-13T12:22:52.492Z,15.03
2022-10-13T12:33:27.988Z,15.13
2022-10-13T12:43:56.615Z,15.21
2022-10-13T12:54:28.713Z,15.25
2022-10-13T13:04:56.259Z,15.29
2022-10-13T13:15:38.685Z,15.39
2022-10-13T13:26:13.406Z,15.47
2022-10-13T13:36:41.836Z,15.54
2022-10-13T13:47:17.319Z,15.58
2022-10-13T13:57:46.397Z,15.59
2022-10-13T14:08:13.934Z,15.57
2022-10-13T14:18:42.075Z,15.55
2022-10-13T14:29:09.656Z,15.50
2022-10-13T14:39:35.566Z,15.42
2022-10-13T14:50:03.313Z,15.36
2022-10-13T15:00:29.401Z,15.42
2022-10-13T15:11:02.989Z,15.49
2022-10-13T15:21:30.627Z,15.56
2022-10-13T15:32:07.835Z,15.58
2022-10-13T15:42:35.594Z,15.50
2022-10-13T15:53:01.685Z,15.43
2022-10-13T16:03:30.025Z,15.30
2022-10-13T16:13:57.762Z,15.12
2022-10-13T16:24:25.474Z,14.89
2022-10-13T16:34:53.114Z,14.73
2022-10-13T16:45:41.195Z,14.57
2022-10-13T16:56:10.960Z,14.30
2022-10-13T17:06:39.635Z,14.16
2022-10-13T17:17:07.757Z,13.99
2022-10-13T17:27:37.518Z,13.90
2022-10-13T17:38:05.028Z,13.76
2022-10-13T17:48:32.741Z,13.54
2022-10-13T17:59:00.418Z,13.37
2022-10-13T18:09:28.045Z,13.20
2022-10-13T18:19:55.814Z,13.00
2022-10-13T18:30:23.481Z,12.93
2022-10-13T18:40:51.098Z,12.75
2022-10-13T18:51:20.408Z,12.69
2022-10-13T19:01:48.811Z,12.60
2022-10-13T19:12:16.488Z,12.61
2022-10-13T19:22:44.027Z,12.45
2022-10-13T19:33:13.605Z,12.31
2022-10-13T19:43:41.165Z,12.07
2022-10-13T19:54:09.492Z,11.92
2022-10-13T20:04:39.523Z,11.86
2022-10-13T20:15:08.243Z,11.62
2022-10-13T20:25:39.068Z,11.65
2022-10-13T20:36:08.918Z,11.50
2022-10-13T20:46:36.721Z,11.56
2022-10-13T20:57:04.300Z,11.58
2022-10-13T21:07:31.881Z,11.67
2022-10-13T21:17:59.510Z,11.73
2022-10-13T21:28:27.251Z,11.72
2022-10-13T21:38:56.287Z,11.70
2022-10-13T21:49:24.294Z,11.73
2022-10-13T21:59:52.041Z,11.65
2022-10-13T22:10:19.841Z,11.60
2022-10-13T22:20:47.542Z,11.67
2022-10-13T22:31:16.165Z,11.76
2022-10-13T22:41:43.915Z,11.76
2022-10-13T22:52:11.561Z,11.80
2022-10-13T23:02:39.268Z,11.72
2022-10-13T23:13:07.507Z,11.85
2022-10-13T23:23:35.834Z,11.87
2022-10-13T23:34:01.853Z,11.83
2022-10-13T23:44:30.051Z,11.83
2022-10-13T23:54:55.935Z,11.76
